sensor_id;sensor_type;location;lat;lon;timestamp;P1;durP1;ratioP1;P2;durP2;ratioP2
38182;SDS011;23991;52.430;10.586;2023-04-24T00:01:32;2.50;;;1.80;;
38182;SDS011;23991;52.430;10.586;2023-04-24T00:03:59;4.30;;;1.65;;
38182;SDS011;23991;52.430;10.586;2023-04-24T00:06:27;4.03;;;1.63;;
38182;SDS011;23991;52.430;10.586;2023-04-24T00:09:14;3.10;;;2.03;;
38182;SDS011;23991;52.430;10.586;2023-04-24T00:11:40;2.28;;;1.63;;
38182;SDS011;23991;52.430;10.586;2023-04-24T00:14:06;3.55;;;1.90;;
38182;SDS011;23991;52.430;10.586;2023-04-24T00:16:31;4.32;;;1.95;;
38182;SDS011;23991;52.430;10.586;2023-04-24T00:18:57;2.50;;;1.70;;
38182;SDS011;23991;52.430;10.586;2023-04-24T00:21:23;4.82;;;1.60;;
38182;SDS011;23991;52.430;10.586;2023-04-24T00:23:50;2.40;;;1.45;;
38182;SDS011;23991;52.430;10.586;2023-04-24T00:26:16;3.17;;;1.50;;
38182;SDS011;23991;52.430;10.586;2023-04-24T00:28:42;2.67;;;1.40;;
38182;SDS011;23991;52.430;10.586;2023-04-24T00:31:07;2.70;;;1.70;;
38182;SDS011;23991;52.430;10.586;2023-04-24T00:33:33;3.10;;;1.70;;
38182;SDS011;23991;52.430;10.586;2023-04-24T00:35:59;2.08;;;1.38;;
38182;SDS011;23991;52.430;10.586;2023-04-24T00:38:24;1.88;;;1.42;;
38182;SDS011;23991;52.430;10.586;2023-04-24T00:40:50;2.60;;;1.80;;
38182;SDS011;23991;52.430;10.586;2023-04-24T00:43:16;2.70;;;1.60;;
38182;SDS011;23991;52.430;10.586;2023-04-24T00:45:42;3.25;;;1.77;;
38182;SDS011;23991;52.430;10.586;2023-04-24T00:48:08;2.80;;;1.50;;
38182;SDS011;23991;52.430;10.586;2023-04-24T00:50:35;3.50;;;1.48;;
38182;SDS011;23991;52.430;10.586;2023-04-24T00:53:01;6.20;;;1.38;;
38182;SDS011;23991;52.430;10.586;2023-04-24T00:55:27;1.88;;;1.10;;
38182;SDS011;23991;52.430;10.586;2023-04-24T00:57:53;2.53;;;1.17;;
38182;SDS011;23991;52.430;10.586;2023-04-24T01:00:19;2.30;;;1.23;;
38182;SDS011;23991;52.430;10.586;2023-04-24T01:02:45;1.92;;;1.30;;
38182;SDS011;23991;52.430;10.586;2023-04-24T01:05:13;2.60;;;1.23;;
38182;SDS011;23991;52.430;10.586;2023-04-24T01:07:40;2.90;;;1.10;;
38182;SDS011;23991;52.430;10.586;2023-04-24T01:10:09;2.20;;;1.45;;
38182;SDS011;23991;52.430;10.586;2023-04-24T01:12:35;1.58;;;1.05;;
38182;SDS011;23991;52.430;10.586;2023-04-24T01:15:00;1.75;;;1.10;;
38182;SDS011;23991;52.430;10.586;2023-04-24T01:17:26;2.22;;;1.45;;
38182;SDS011;23991;52.430;10.586;2023-04-24T01:19:51;1.83;;;1.27;;
38182;SDS011;23991;52.430;10.586;2023-04-24T01:24:47;2.00;;;1.40;;
38182;SDS011;23991;52.430;10.586;2023-04-24T01:27:13;1.92;;;1.20;;
38182;SDS011;23991;52.430;10.586;2023-04-24T01:29:39;3.13;;;1.63;;
38182;SDS011;23991;52.430;10.586;2023-04-24T01:32:05;3.78;;;1.27;;
38182;SDS011;23991;52.430;10.586;2023-04-24T01:34:31;4.72;;;1.30;;
38182;SDS011;23991;52.430;10.586;2023-04-24T01:36:57;2.58;;;1.30;;
38182;SDS011;23991;52.430;10.586;2023-04-24T01:39:23;2.13;;;1.23;;
38182;SDS011;23991;52.430;10.586;2023-04-24T01:41:50;2.20;;;1.30;;
38182;SDS011;23991;52.430;10.586;2023-04-24T01:44:17;1.63;;;1.30;;
38182;SDS011;23991;52.430;10.586;2023-04-24T01:46:43;1.90;;;1.20;;
38182;SDS011;23991;52.430;10.586;2023-04-24T01:49:09;1.45;;;1.10;;
38182;SDS011;23991;52.430;10.586;2023-04-24T01:51:35;5.82;;;1.40;;
38182;SDS011;23991;52.430;10.586;2023-04-24T01:54:01;1.85;;;1.38;;
38182;SDS011;23991;52.430;10.586;2023-04-24T01:56:27;1.88;;;1.35;;
38182;SDS011;23991;52.430;10.586;2023-04-24T01:58:55;1.88;;;1.30;;
38182;SDS011;23991;52.430;10.586;2023-04-24T02:01:23;2.35;;;1.30;;
38182;SDS011;23991;52.430;10.586;2023-04-24T02:03:49;2.10;;;1.35;;
38182;SDS011;23991;52.430;10.586;2023-04-24T02:06:15;1.92;;;1.20;;
38182;SDS011;23991;52.430;10.586;2023-04-24T02:08:40;2.63;;;1.20;;
38182;SDS011;23991;52.430;10.586;2023-04-24T02:11:06;1.63;;;1.17;;
38182;SDS011;23991;52.430;10.586;2023-04-24T02:13:33;2.40;;;1.42;;
38182;SDS011;23991;52.430;10.586;2023-04-24T02:15:59;1.83;;;1.30;;
38182;SDS011;23991;52.430;10.586;2023-04-24T02:18:24;2.83;;;1.50;;
38182;SDS011;23991;52.430;10.586;2023-04-24T02:20:50;5.60;;;1.50;;
38182;SDS011;23991;52.430;10.586;2023-04-24T02:23:15;3.15;;;1.20;;
38182;SDS011;23991;52.430;10.586;2023-04-24T02:25:41;2.75;;;1.50;;
38182;SDS011;23991;52.430;10.586;2023-04-24T02:28:07;2.20;;;1.25;;
38182;SDS011;23991;52.430;10.586;2023-04-24T02:30:34;2.50;;;1.33;;
38182;SDS011;23991;52.430;10.586;2023-04-24T02:33:00;2.17;;;1.42;;
38182;SDS011;23991;52.430;10.586;2023-04-24T02:35:25;1.77;;;1.30;;
38182;SDS011;23991;52.430;10.586;2023-04-24T02:37:51;1.88;;;1.45;;
38182;SDS011;23991;52.430;10.586;2023-04-24T02:40:17;3.85;;;1.30;;
38182;SDS011;23991;52.430;10.586;2023-04-24T02:42:42;2.58;;;1.33;;
38182;SDS011;23991;52.430;10.586;2023-04-24T02:45:08;3.78;;;1.50;;
38182;SDS011;23991;52.430;10.586;2023-04-24T02:47:34;1.67;;;1.40;;
38182;SDS011;23991;52.430;10.586;2023-04-24T02:50:00;1.95;;;1.40;;
38182;SDS011;23991;52.430;10.586;2023-04-24T02:52:26;2.47;;;1.50;;
38182;SDS011;23991;52.430;10.586;2023-04-24T02:54:51;1.70;;;1.23;;
38182;SDS011;23991;52.430;10.586;2023-04-24T02:57:18;2.17;;;1.40;;
38182;SDS011;23991;52.430;10.586;2023-04-24T02:59:44;1.88;;;1.45;;
38182;SDS011;23991;52.430;10.586;2023-04-24T03:02:09;1.67;;;1.40;;
38182;SDS011;23991;52.430;10.586;2023-04-24T03:04:35;3.45;;;1.65;;
38182;SDS011;23991;52.430;10.586;2023-04-24T03:07:01;2.47;;;1.33;;
38182;SDS011;23991;52.430;10.586;2023-04-24T03:09:26;1.80;;;1.35;;
38182;SDS011;23991;52.430;10.586;2023-04-24T03:11:52;6.57;;;1.92;;
38182;SDS011;23991;52.430;10.586;2023-04-24T03:14:18;2.83;;;1.30;;
38182;SDS011;23991;52.430;10.586;2023-04-24T03:16:43;2.05;;;1.45;;
38182;SDS011;23991;52.430;10.586;2023-04-24T03:19:09;2.08;;;1.23;;
38182;SDS011;23991;52.430;10.586;2023-04-24T03:21:35;3.10;;;1.10;;
38182;SDS011;23991;52.430;10.586;2023-04-24T03:24:05;3.13;;;1.48;;
38182;SDS011;23991;52.430;10.586;2023-04-24T03:26:31;3.95;;;1.58;;
38182;SDS011;23991;52.430;10.586;2023-04-24T03:28:57;3.42;;;1.60;;
38182;SDS011;23991;52.430;10.586;2023-04-24T03:31:23;2.65;;;1.25;;
38182;SDS011;23991;52.430;10.586;2023-04-24T03:33:48;2.63;;;1.27;;
38182;SDS011;23991;52.430;10.586;2023-04-24T03:36:14;2.10;;;1.50;;
38182;SDS011;23991;52.430;10.586;2023-04-24T03:38:40;1.88;;;1.25;;
38182;SDS011;23991;52.430;10.586;2023-04-24T03:41:05;2.15;;;1.45;;
38182;SDS011;23991;52.430;10.586;2023-04-24T03:43:31;3.08;;;1.40;;
38182;SDS011;23991;52.430;10.586;2023-04-24T03:45:58;2.42;;;1.23;;
38182;SDS011;23991;52.430;10.586;2023-04-24T03:48:26;1.70;;;1.05;;
38182;SDS011;23991;52.430;10.586;2023-04-24T03:50:51;2.53;;;1.50;;
38182;SDS011;23991;52.430;10.586;2023-04-24T03:53:17;2.92;;;1.48;;
38182;SDS011;23991;52.430;10.586;2023-04-24T03:55:42;4.13;;;1.95;;
38182;SDS011;23991;52.430;10.586;2023-04-24T03:58:08;2.67;;;1.40;;
38182;SDS011;23991;52.430;10.586;2023-04-24T04:00:34;2.10;;;1.13;;
38182;SDS011;23991;52.430;10.586;2023-04-24T04:02:59;4.38;;;1.30;;
38182;SDS011;23991;52.430;10.586;2023-04-24T04:05:25;2.70;;;1.33;;
38182;SDS011;23991;52.430;10.586;2023-04-24T04:07:51;1.77;;;1.30;;
38182;SDS011;23991;52.430;10.586;2023-04-24T04:10:16;2.00;;;1.30;;
38182;SDS011;23991;52.430;10.586;2023-04-24T04:12:42;2.17;;;1.25;;
38182;SDS011;23991;52.430;10.586;2023-04-24T04:15:08;2.08;;;1.10;;
38182;SDS011;23991;52.430;10.586;2023-04-24T04:17:34;1.15;;;1.00;;
38182;SDS011;23991;52.430;10.586;2023-04-24T04:19:59;2.35;;;1.20;;
38182;SDS011;23991;52.430;10.586;2023-04-24T04:22:26;2.13;;;1.40;;
38182;SDS011;23991;52.430;10.586;2023-04-24T04:24:51;2.22;;;1.30;;
38182;SDS011;23991;52.430;10.586;2023-04-24T04:27:17;2.97;;;1.40;;
38182;SDS011;23991;52.430;10.586;2023-04-24T04:29:43;2.05;;;1.20;;
38182;SDS011;23991;52.430;10.586;2023-04-24T04:32:09;3.05;;;1.10;;
38182;SDS011;23991;52.430;10.586;2023-04-24T04:34:35;2.17;;;1.30;;
38182;SDS011;23991;52.430;10.586;2023-04-24T04:37:02;1.70;;;1.10;;
38182;SDS011;23991;52.430;10.586;2023-04-24T04:39:28;1.75;;;1.10;;
38182;SDS011;23991;52.430;10.586;2023-04-24T04:41:55;3.03;;;1.15;;
38182;SDS011;23991;52.430;10.586;2023-04-24T04:44:30;3.08;;;1.17;;
38182;SDS011;23991;52.430;10.586;2023-04-24T04:46:55;2.65;;;1.20;;
38182;SDS011;23991;52.430;10.586;2023-04-24T04:49:22;2.13;;;1.20;;
38182;SDS011;23991;52.430;10.586;2023-04-24T04:51:48;2.08;;;1.27;;
38182;SDS011;23991;52.430;10.586;2023-04-24T04:54:15;1.45;;;1.10;;
38182;SDS011;23991;52.430;10.586;2023-04-24T04:56:41;2.10;;;1.30;;
38182;SDS011;23991;52.430;10.586;2023-04-24T04:59:07;2.33;;;1.00;;
38182;SDS011;23991;52.430;10.586;2023-04-24T05:01:32;1.48;;;0.98;;
38182;SDS011;23991;52.430;10.586;2023-04-24T05:03:58;1.38;;;1.00;;
38182;SDS011;23991;52.430;10.586;2023-04-24T05:06:23;5.75;;;1.13;;
38182;SDS011;23991;52.430;10.586;2023-04-24T05:08:49;2.47;;;1.10;;
38182;SDS011;23991;52.430;10.586;2023-04-24T05:11:14;2.00;;;1.20;;
38182;SDS011;23991;52.430;10.586;2023-04-24T05:13:40;2.13;;;1.10;;
38182;SDS011;23991;52.430;10.586;2023-04-24T05:16:06;1.88;;;1.20;;
38182;SDS011;23991;52.430;10.586;2023-04-24T05:18:31;3.13;;;1.10;;
38182;SDS011;23991;52.430;10.586;2023-04-24T05:20:57;2.17;;;1.15;;
38182;SDS011;23991;52.430;10.586;2023-04-24T05:23:22;3.03;;;1.20;;
38182;SDS011;23991;52.430;10.586;2023-04-24T05:25:48;1.63;;;1.15;;
38182;SDS011;23991;52.430;10.586;2023-04-24T05:28:14;1.38;;;1.15;;
38182;SDS011;23991;52.430;10.586;2023-04-24T05:30:40;3.28;;;1.25;;
38182;SDS011;23991;52.430;10.586;2023-04-24T05:33:05;2.25;;;1.17;;
38182;SDS011;23991;52.430;10.586;2023-04-24T05:35:31;2.60;;;1.77;;
38182;SDS011;23991;52.430;10.586;2023-04-24T05:37:56;1.75;;;1.30;;
38182;SDS011;23991;52.430;10.586;2023-04-24T05:40:22;1.88;;;1.40;;
38182;SDS011;23991;52.430;10.586;2023-04-24T05:42:48;2.97;;;1.45;;
38182;SDS011;23991;52.430;10.586;2023-04-24T05:45:13;2.55;;;1.00;;
38182;SDS011;23991;52.430;10.586;2023-04-24T05:47:41;1.83;;;1.20;;
38182;SDS011;23991;52.430;10.586;2023-04-24T05:50:09;1.73;;;1.10;;
38182;SDS011;23991;52.430;10.586;2023-04-24T05:52:35;2.45;;;1.00;;
38182;SDS011;23991;52.430;10.586;2023-04-24T05:55:00;3.30;;;1.30;;
38182;SDS011;23991;52.430;10.586;2023-04-24T05:57:26;2.25;;;1.10;;
38182;SDS011;23991;52.430;10.586;2023-04-24T05:59:51;2.72;;;1.20;;
38182;SDS011;23991;52.430;10.586;2023-04-24T06:02:17;1.50;;;1.00;;
38182;SDS011;23991;52.430;10.586;2023-04-24T06:04:43;2.22;;;1.20;;
38182;SDS011;23991;52.430;10.586;2023-04-24T06:07:10;2.05;;;1.10;;
38182;SDS011;23991;52.430;10.586;2023-04-24T06:09:36;2.20;;;1.13;;
38182;SDS011;23991;52.430;10.586;2023-04-24T06:12:01;1.70;;;1.08;;
38182;SDS011;23991;52.430;10.586;2023-04-24T06:14:27;2.55;;;1.17;;
38182;SDS011;23991;52.430;10.586;2023-04-24T06:16:53;2.95;;;1.10;;
38182;SDS011;23991;52.430;10.586;2023-04-24T06:19:18;3.05;;;1.23;;
38182;SDS011;23991;52.430;10.586;2023-04-24T06:21:44;2.45;;;1.30;;
38182;SDS011;23991;52.430;10.586;2023-04-24T06:24:10;2.88;;;1.42;;
38182;SDS011;23991;52.430;10.586;2023-04-24T06:26:35;3.92;;;1.60;;
38182;SDS011;23991;52.430;10.586;2023-04-24T06:29:01;3.20;;;1.40;;
38182;SDS011;23991;52.430;10.586;2023-04-24T06:31:26;3.45;;;1.30;;
38182;SDS011;23991;52.430;10.586;2023-04-24T06:33:52;2.92;;;1.70;;
38182;SDS011;23991;52.430;10.586;2023-04-24T06:36:18;4.00;;;1.48;;
38182;SDS011;23991;52.430;10.586;2023-04-24T06:38:43;2.28;;;1.13;;
38182;SDS011;23991;52.430;10.586;2023-04-24T06:41:09;3.13;;;1.48;;
38182;SDS011;23991;52.430;10.586;2023-04-24T06:43:35;1.63;;;1.33;;
38182;SDS011;23991;52.430;10.586;2023-04-24T06:46:00;2.13;;;1.17;;
38182;SDS011;23991;52.430;10.586;2023-04-24T06:48:28;4.38;;;1.40;;
38182;SDS011;23991;52.430;10.586;2023-04-24T06:50:54;3.22;;;1.05;;
38182;SDS011;23991;52.430;10.586;2023-04-24T06:53:19;1.98;;;1.13;;
38182;SDS011;23991;52.430;10.586;2023-04-24T06:55:45;4.00;;;1.40;;
38182;SDS011;23991;52.430;10.586;2023-04-24T06:58:11;3.97;;;1.63;;
38182;SDS011;23991;52.430;10.586;2023-04-24T07:00:36;2.40;;;1.30;;
38182;SDS011;23991;52.430;10.586;2023-04-24T07:03:03;1.90;;;1.20;;
38182;SDS011;23991;52.430;10.586;2023-04-24T07:05:30;3.55;;;1.42;;
38182;SDS011;23991;52.430;10.586;2023-04-24T07:07:56;2.20;;;1.13;;
38182;SDS011;23991;52.430;10.586;2023-04-24T07:10:23;1.85;;;1.20;;
38182;SDS011;23991;52.430;10.586;2023-04-24T07:12:49;3.67;;;1.38;;
38182;SDS011;23991;52.430;10.586;2023-04-24T07:15:15;1.65;;;1.02;;
38182;SDS011;23991;52.430;10.586;2023-04-24T07:17:41;1.33;;;1.10;;
38182;SDS011;23991;52.430;10.586;2023-04-24T07:20:10;2.13;;;1.00;;
38182;SDS011;23991;52.430;10.586;2023-04-24T07:22:39;2.85;;;0.85;;
38182;SDS011;23991;52.430;10.586;2023-04-24T07:25:05;1.67;;;1.10;;
38182;SDS011;23991;52.430;10.586;2023-04-24T07:27:31;2.17;;;1.20;;
38182;SDS011;23991;52.430;10.586;2023-04-24T07:29:57;2.60;;;1.10;;
38182;SDS011;23991;52.430;10.586;2023-04-24T07:32:22;3.53;;;1.20;;
38182;SDS011;23991;52.430;10.586;2023-04-24T07:34:48;2.08;;;1.10;;
38182;SDS011;23991;52.430;10.586;2023-04-24T07:37:13;2.88;;;1.25;;
38182;SDS011;23991;52.430;10.586;2023-04-24T07:39:39;2.50;;;1.35;;
38182;SDS011;23991;52.430;10.586;2023-04-24T07:42:05;1.95;;;1.25;;
38182;SDS011;23991;52.430;10.586;2023-04-24T07:44:31;1.20;;;0.90;;
38182;SDS011;23991;52.430;10.586;2023-04-24T07:46:57;2.72;;;1.05;;
38182;SDS011;23991;52.430;10.586;2023-04-24T07:49:22;1.70;;;1.05;;
38182;SDS011;23991;52.430;10.586;2023-04-24T07:51:48;1.63;;;1.10;;
38182;SDS011;23991;52.430;10.586;2023-04-24T07:54:14;1.23;;;0.95;;
38182;SDS011;23991;52.430;10.586;2023-04-24T07:56:40;1.73;;;0.88;;
38182;SDS011;23991;52.430;10.586;2023-04-24T07:59:08;1.60;;;1.17;;
38182;SDS011;23991;52.430;10.586;2023-04-24T08:01:35;1.85;;;1.20;;
38182;SDS011;23991;52.430;10.586;2023-04-24T08:04:00;1.38;;;1.17;;
38182;SDS011;23991;52.430;10.586;2023-04-24T08:06:26;1.95;;;1.30;;
38182;SDS011;23991;52.430;10.586;2023-04-24T08:08:57;1.13;;;1.00;;
38182;SDS011;23991;52.430;10.586;2023-04-24T08:11:23;1.33;;;1.10;;
38182;SDS011;23991;52.430;10.586;2023-04-24T08:13:49;1.92;;;1.20;;
38182;SDS011;23991;52.430;10.586;2023-04-24T08:16:14;1.75;;;1.10;;
38182;SDS011;23991;52.430;10.586;2023-04-24T08:18:40;2.10;;;1.50;;
38182;SDS011;23991;52.430;10.586;2023-04-24T08:21:06;2.03;;;1.10;;
38182;SDS011;23991;52.430;10.586;2023-04-24T08:23:31;2.83;;;1.42;;
38182;SDS011;23991;52.430;10.586;2023-04-24T08:25:57;2.55;;;1.45;;
38182;SDS011;23991;52.430;10.586;2023-04-24T08:28:23;2.30;;;1.58;;
38182;SDS011;23991;52.430;10.586;2023-04-24T08:30:48;3.40;;;1.48;;
38182;SDS011;23991;52.430;10.586;2023-04-24T08:33:19;1.92;;;1.30;;
38182;SDS011;23991;52.430;10.586;2023-04-24T08:35:47;3.13;;;1.70;;
38182;SDS011;23991;52.430;10.586;2023-04-24T08:38:13;3.97;;;1.73;;
38182;SDS011;23991;52.430;10.586;2023-04-24T08:40:39;2.70;;;1.67;;
38182;SDS011;23991;52.430;10.586;2023-04-24T08:43:08;2.60;;;1.63;;
38182;SDS011;23991;52.430;10.586;2023-04-24T08:45:34;3.22;;;1.70;;
38182;SDS011;23991;52.430;10.586;2023-04-24T08:48:00;2.80;;;1.60;;
38182;SDS011;23991;52.430;10.586;2023-04-24T08:50:27;2.92;;;2.05;;
38182;SDS011;23991;52.430;10.586;2023-04-24T08:52:54;4.15;;;1.90;;
38182;SDS011;23991;52.430;10.586;2023-04-24T08:55:20;2.83;;;1.80;;
38182;SDS011;23991;52.430;10.586;2023-04-24T08:57:50;4.35;;;2.20;;
38182;SDS011;23991;52.430;10.586;2023-04-24T09:00:18;2.75;;;2.00;;
38182;SDS011;23991;52.430;10.586;2023-04-24T09:02:45;3.38;;;1.90;;
38182;SDS011;23991;52.430;10.586;2023-04-24T09:05:13;4.18;;;2.53;;
38182;SDS011;23991;52.430;10.586;2023-04-24T09:07:44;3.35;;;2.60;;
38182;SDS011;23991;52.430;10.586;2023-04-24T09:10:14;3.78;;;2.78;;
38182;SDS011;23991;52.430;10.586;2023-04-24T09:12:40;4.05;;;2.90;;
38182;SDS011;23991;52.430;10.586;2023-04-24T09:15:07;3.63;;;2.67;;
38182;SDS011;23991;52.430;10.586;2023-04-24T09:17:33;4.97;;;3.10;;
38182;SDS011;23991;52.430;10.586;2023-04-24T09:20:00;6.00;;;3.05;;
38182;SDS011;23991;52.430;10.586;2023-04-24T09:22:28;4.72;;;3.10;;
38182;SDS011;23991;52.430;10.586;2023-04-24T09:25:02;3.70;;;2.97;;
38182;SDS011;23991;52.430;10.586;2023-04-24T09:27:32;5.90;;;3.58;;
38182;SDS011;23991;52.430;10.586;2023-04-24T09:29:59;4.65;;;3.25;;
38182;SDS011;23991;52.430;10.586;2023-04-24T09:32:25;5.90;;;3.45;;
38182;SDS011;23991;52.430;10.586;2023-04-24T09:37:40;4.75;;;3.47;;
38182;SDS011;23991;52.430;10.586;2023-04-24T09:40:20;5.57;;;3.47;;
38182;SDS011;23991;52.430;10.586;2023-04-24T09:42:55;4.53;;;3.53;;
38182;SDS011;23991;52.430;10.586;2023-04-24T09:45:27;4.43;;;3.55;;
38182;SDS011;23991;52.430;10.586;2023-04-24T09:47:59;4.10;;;3.33;;
38182;SDS011;23991;52.430;10.586;2023-04-24T09:50:25;4.80;;;3.63;;
38182;SDS011;23991;52.430;10.586;2023-04-24T09:53:04;4.35;;;3.33;;
38182;SDS011;23991;52.430;10.586;2023-04-24T09:55:30;5.13;;;3.40;;
38182;SDS011;23991;52.430;10.586;2023-04-24T09:57:59;5.47;;;2.95;;
38182;SDS011;23991;52.430;10.586;2023-04-24T10:00:27;4.35;;;3.55;;
38182;SDS011;23991;52.430;10.586;2023-04-24T10:02:54;4.78;;;3.72;;
38182;SDS011;23991;52.430;10.586;2023-04-24T10:05:25;3.95;;;3.50;;
38182;SDS011;23991;52.430;10.586;2023-04-24T10:07:56;4.63;;;3.53;;
38182;SDS011;23991;52.430;10.586;2023-04-24T10:10:23;4.28;;;3.17;;
38182;SDS011;23991;52.430;10.586;2023-04-24T10:12:48;4.30;;;2.85;;
38182;SDS011;23991;52.430;10.586;2023-04-24T10:15:15;4.43;;;3.45;;
38182;SDS011;23991;52.430;10.586;2023-04-24T10:17:46;5.57;;;2.85;;
38182;SDS011;23991;52.430;10.586;2023-04-24T10:20:17;4.38;;;3.13;;
38182;SDS011;23991;52.430;10.586;2023-04-24T10:22:44;4.38;;;2.88;;
38182;SDS011;23991;52.430;10.586;2023-04-24T10:25:14;3.40;;;2.40;;
38182;SDS011;23991;52.430;10.586;2023-04-24T10:27:52;3.45;;;2.65;;
38182;SDS011;23991;52.430;10.586;2023-04-24T10:30:22;5.00;;;2.72;;
38182;SDS011;23991;52.430;10.586;2023-04-24T10:32:47;3.60;;;2.17;;
38182;SDS011;23991;52.430;10.586;2023-04-24T10:35:13;2.53;;;2.03;;
38182;SDS011;23991;52.430;10.586;2023-04-24T10:37:44;3.28;;;2.40;;
38182;SDS011;23991;52.430;10.586;2023-04-24T10:40:17;4.47;;;2.35;;
38182;SDS011;23991;52.430;10.586;2023-04-24T10:42:47;2.50;;;2.10;;
38182;SDS011;23991;52.430;10.586;2023-04-24T10:47:50;3.47;;;2.10;;
38182;SDS011;23991;52.430;10.586;2023-04-24T10:50:21;2.97;;;2.10;;
38182;SDS011;23991;52.430;10.586;2023-04-24T10:52:47;4.15;;;2.03;;
38182;SDS011;23991;52.430;10.586;2023-04-24T10:55:15;3.50;;;2.63;;
38182;SDS011;23991;52.430;10.586;2023-04-24T10:58:00;3.78;;;2.35;;
38182;SDS011;23991;52.430;10.586;2023-04-24T11:00:28;3.33;;;2.20;;
38182;SDS011;23991;52.430;10.586;2023-04-24T11:02:54;2.80;;;1.92;;
38182;SDS011;23991;52.430;10.586;2023-04-24T11:05:20;2.88;;;1.90;;
38182;SDS011;23991;52.430;10.586;2023-04-24T11:10:43;4.22;;;1.70;;
38182;SDS011;23991;52.430;10.586;2023-04-24T11:13:10;2.65;;;1.70;;
38182;SDS011;23991;52.430;10.586;2023-04-24T11:15:40;3.83;;;1.95;;
38182;SDS011;23991;52.430;10.586;2023-04-24T11:18:07;2.00;;;1.70;;
38182;SDS011;23991;52.430;10.586;2023-04-24T11:20:38;2.42;;;1.80;;
38182;SDS011;23991;52.430;10.586;2023-04-24T11:23:07;2.53;;;1.90;;
38182;SDS011;23991;52.430;10.586;2023-04-24T11:25:33;2.47;;;1.90;;
38182;SDS011;23991;52.430;10.586;2023-04-24T11:28:04;2.45;;;2.08;;
38182;SDS011;23991;52.430;10.586;2023-04-24T11:30:31;4.18;;;2.00;;
38182;SDS011;23991;52.430;10.586;2023-04-24T11:33:01;2.78;;;1.83;;
38182;SDS011;23991;52.430;10.586;2023-04-24T11:35:29;3.33;;;1.77;;
38182;SDS011;23991;52.430;10.586;2023-04-24T11:37:59;4.50;;;1.70;;
38182;SDS011;23991;52.430;10.586;2023-04-24T11:40:27;3.30;;;2.05;;
38182;SDS011;23991;52.430;10.586;2023-04-24T11:42:54;2.45;;;1.60;;
38182;SDS011;23991;52.430;10.586;2023-04-24T11:45:25;3.22;;;1.77;;
38182;SDS011;23991;52.430;10.586;2023-04-24T11:47:52;3.03;;;1.80;;
38182;SDS011;23991;52.430;10.586;2023-04-24T11:50:18;2.70;;;1.67;;
38182;SDS011;23991;52.430;10.586;2023-04-24T11:52:47;3.53;;;1.90;;
38182;SDS011;23991;52.430;10.586;2023-04-24T11:57:39;3.30;;;1.90;;
38182;SDS011;23991;52.430;10.586;2023-04-24T12:00:14;2.42;;;1.50;;
38182;SDS011;23991;52.430;10.586;2023-04-24T12:02:42;2.30;;;1.48;;
38182;SDS011;23991;52.430;10.586;2023-04-24T12:05:07;2.40;;;1.77;;
38182;SDS011;23991;52.430;10.586;2023-04-24T12:07:40;2.70;;;1.58;;
38182;SDS011;23991;52.430;10.586;2023-04-24T12:10:09;3.42;;;1.75;;
38182;SDS011;23991;52.430;10.586;2023-04-24T12:12:35;3.92;;;2.00;;
38182;SDS011;23991;52.430;10.586;2023-04-24T12:15:01;2.28;;;1.67;;
38182;SDS011;23991;52.430;10.586;2023-04-24T12:17:33;3.55;;;1.70;;
38182;SDS011;23991;52.430;10.586;2023-04-24T12:20:01;3.88;;;1.52;;
38182;SDS011;23991;52.430;10.586;2023-04-24T12:22:50;1.85;;;1.40;;
38182;SDS011;23991;52.430;10.586;2023-04-24T12:25:19;1.70;;;1.30;;
38182;SDS011;23991;52.430;10.586;2023-04-24T12:27:57;2.70;;;1.73;;
38182;SDS011;23991;52.430;10.586;2023-04-24T12:30:41;1.63;;;1.20;;
38182;SDS011;23991;52.430;10.586;2023-04-24T12:33:09;2.03;;;1.50;;
38182;SDS011;23991;52.430;10.586;2023-04-24T12:35:35;2.55;;;1.63;;
38182;SDS011;23991;52.430;10.586;2023-04-24T12:38:16;2.10;;;1.63;;
38182;SDS011;23991;52.430;10.586;2023-04-24T12:40:46;2.22;;;1.60;;
38182;SDS011;23991;52.430;10.586;2023-04-24T12:43:15;2.88;;;1.55;;
38182;SDS011;23991;52.430;10.586;2023-04-24T12:45:41;2.25;;;1.58;;
38182;SDS011;23991;52.430;10.586;2023-04-24T12:48:07;5.70;;;1.52;;
38182;SDS011;23991;52.430;10.586;2023-04-24T12:50:32;2.70;;;1.30;;
38182;SDS011;23991;52.430;10.586;2023-04-24T12:52:58;1.83;;;1.40;;
38182;SDS011;23991;52.430;10.586;2023-04-24T12:55:24;2.05;;;1.10;;
38182;SDS011;23991;52.430;10.586;2023-04-24T12:57:50;1.95;;;1.30;;
38182;SDS011;23991;52.430;10.586;2023-04-24T13:00:17;2.90;;;1.50;;
38182;SDS011;23991;52.430;10.586;2023-04-24T13:02:45;2.47;;;1.55;;
38182;SDS011;23991;52.430;10.586;2023-04-24T13:05:11;4.30;;;1.38;;
38182;SDS011;23991;52.430;10.586;2023-04-24T13:07:38;3.28;;;1.10;;
38182;SDS011;23991;52.430;10.586;2023-04-24T13:10:04;1.20;;;0.95;;
38182;SDS011;23991;52.430;10.586;2023-04-24T13:12:31;1.95;;;1.10;;
38182;SDS011;23991;52.430;10.586;2023-04-24T13:14:57;1.88;;;1.00;;
38182;SDS011;23991;52.430;10.586;2023-04-24T13:17:23;1.25;;;0.90;;
38182;SDS011;23991;52.430;10.586;2023-04-24T13:19:49;1.25;;;0.80;;
38182;SDS011;23991;52.430;10.586;2023-04-24T13:22:16;1.23;;;0.80;;
38182;SDS011;23991;52.430;10.586;2023-04-24T13:24:43;1.45;;;0.93;;
38182;SDS011;23991;52.430;10.586;2023-04-24T13:27:09;1.15;;;0.93;;
38182;SDS011;23991;52.430;10.586;2023-04-24T13:29:35;3.63;;;1.30;;
38182;SDS011;23991;52.430;10.586;2023-04-24T13:32:01;1.73;;;0.95;;
38182;SDS011;23991;52.430;10.586;2023-04-24T13:34:27;1.27;;;0.93;;
38182;SDS011;23991;52.430;10.586;2023-04-24T13:36:53;1.23;;;1.02;;
38182;SDS011;23991;52.430;10.586;2023-04-24T13:39:20;3.92;;;0.80;;
38182;SDS011;23991;52.430;10.586;2023-04-24T13:41:46;2.78;;;1.10;;
38182;SDS011;23991;52.430;10.586;2023-04-24T13:44:13;1.05;;;0.95;;
38182;SDS011;23991;52.430;10.586;2023-04-24T13:46:39;1.38;;;1.10;;
38182;SDS011;23991;52.430;10.586;2023-04-24T13:49:05;1.40;;;1.20;;
38182;SDS011;23991;52.430;10.586;2023-04-24T13:51:31;2.08;;;1.20;;
38182;SDS011;23991;52.430;10.586;2023-04-24T13:53:57;2.60;;;1.30;;
38182;SDS011;23991;52.430;10.586;2023-04-24T13:56:22;1.90;;;1.30;;
38182;SDS011;23991;52.430;10.586;2023-04-24T13:58:48;1.42;;;1.20;;
38182;SDS011;23991;52.430;10.586;2023-04-24T14:01:14;3.97;;;1.33;;
38182;SDS011;23991;52.430;10.586;2023-04-24T14:03:42;1.60;;;1.40;;
38182;SDS011;23991;52.430;10.586;2023-04-24T14:06:08;3.42;;;1.45;;
38182;SDS011;23991;52.430;10.586;2023-04-24T14:08:34;2.67;;;1.67;;
38182;SDS011;23991;52.430;10.586;2023-04-24T14:11:00;2.08;;;1.60;;
38182;SDS011;23991;52.430;10.586;2023-04-24T14:13:25;2.55;;;1.42;;
38182;SDS011;23991;52.430;10.586;2023-04-24T14:15:51;4.18;;;1.65;;
38182;SDS011;23991;52.430;10.586;2023-04-24T14:18:17;1.65;;;1.25;;
38182;SDS011;23991;52.430;10.586;2023-04-24T14:20:43;2.20;;;1.30;;
38182;SDS011;23991;52.430;10.586;2023-04-24T14:23:09;1.48;;;1.20;;
38182;SDS011;23991;52.430;10.586;2023-04-24T14:25:34;2.42;;;1.40;;
38182;SDS011;23991;52.430;10.586;2023-04-24T14:28:00;1.83;;;1.20;;
38182;SDS011;23991;52.430;10.586;2023-04-24T14:30:25;1.58;;;1.15;;
38182;SDS011;23991;52.430;10.586;2023-04-24T14:32:51;2.33;;;1.00;;
38182;SDS011;23991;52.430;10.586;2023-04-24T14:35:17;1.38;;;0.93;;
38182;SDS011;23991;52.430;10.586;2023-04-24T14:37:42;1.60;;;0.98;;
38182;SDS011;23991;52.430;10.586;2023-04-24T14:40:08;1.80;;;1.08;;
38182;SDS011;23991;52.430;10.586;2023-04-24T14:42:34;2.15;;;1.13;;
38182;SDS011;23991;52.430;10.586;2023-04-24T14:45:00;1.83;;;0.90;;